Florencia — IBPD — position and weather

sailwx.info

Track history (hours):
 
Tides and Currents Weather Stations Pressure Air Temp Water Temp Dewpoint Dewpoint Depression Visibility Wind Speed Wind Dir Waves Ship Positions

Florencia

Last reported at 2017-Aug-18 03:00 UTC. Time now 2017-Aug-18 03:06 UTC.
Position N 38°32' E 015°33'.

Length 186 m; draft 6 m.

Type: Ship (hazmat cat C). MMSI: 247105900.

Date/timePositionNaut miles runAvg speedWind from/ knotsBaromVisibWave heightAir tempDewpointWater temp
2017-Aug-18 03:00N 38°32' E 015°33'1121.5
2017-Aug-18 02:30N 38°41' E 015°26'1121.4
2017-Aug-18 02:00N 38°51' E 015°20'1121.3
2017-Aug-18 01:30N 39°01' E 015°14'1121.4
2017-Aug-18 01:00N 39°10' E 015°08'1221.2
2017-Aug-18 00:26N 39°21' E 015°02'2820.9
2017-Aug-17 23:06N 39°46' E 014°46'620.8
2017-Aug-17 22:49N 39°52' E 014°43'720.7
2017-Aug-17 22:27N 39°58' E 014°38'1021.1
2017-Aug-17 22:00N 40°07' E 014°33'1221.1
2017-Aug-17 21:27N 40°18' E 014°26'920.8
2017-Aug-17 21:00N 40°26' E 014°22'1821.1
2017-Aug-17 20:10N 40°43' E 014°17'321.5
2017-Aug-17 20:00N 40°47' E 014°17'4 6.1
2017-Aug-17 19:22N 40°50' E 014°16'0 0.0
2017-Aug-17 18:58N 40°50' E 014°16'0 0.0
2017-Aug-17 18:28N 40°50' E 014°16'0 0.0
2017-Aug-17 17:58N 40°50' E 014°16'0 0.0
2017-Aug-17 17:28N 40°50' E 014°16'0 0.0
2017-Aug-17 16:58N 40°50' E 014°16'0 0.0
2017-Aug-17 16:28N 40°50' E 014°16'0 0.0
2017-Aug-17 15:58N 40°50' E 014°16'0 0.0
2017-Aug-17 15:28N 40°50' E 014°16'0 0.0
2017-Aug-17 14:58N 40°50' E 014°16'0 0.0
2017-Aug-17 14:28N 40°50' E 014°16'0 0.0
2017-Aug-17 13:58N 40°50' E 014°16'0 0.0
2017-Aug-17 13:28N 40°50' E 014°16'0 0.0
2017-Aug-17 12:58N 40°50' E 014°16'0 0.0
2017-Aug-17 12:28N 40°50' E 014°16'0 0.0
2017-Aug-17 11:58N 40°50' E 014°16'0 0.0
2017-Aug-17 11:28N 40°50' E 014°16'0 0.0
2017-Aug-17 10:58N 40°50' E 014°16'0 0.0
2017-Aug-17 10:25N 40°50' E 014°16'0 0.0
2017-Aug-17 09:58N 40°50' E 014°16'0 0.0
2017-Aug-17 09:28N 40°50' E 014°16'0 0.0
2017-Aug-17 08:59N 40°50' E 014°16'510.4
2017-Aug-17 08:30N 40°45' E 014°17'1122.0
2017-Aug-17 08:01N 40°35' E 014°17'1121.9
2017-Aug-17 07:31N 40°24' E 014°23'3621.7
2017-Aug-17 05:50N 39°52' E 014°43'721.6
2017-Aug-17 05:30N 39°45' E 014°48'1921.5
2017-Aug-17 04:36N 39°28' E 014°59'2820.9
2017-Aug-17 03:17N 39°03' E 015°14'820.8
2017-Aug-17 02:55N 38°56' E 015°19'1021.0
2017-Aug-17 02:27N 38°48' E 015°24'921.0
2017-Aug-17 02:00N 38°39' E 015°29'1121.6
2017-Aug-17 01:30N 38°30' E 015°35'1121.4
2017-Aug-17 01:00N 38°20' E 015°42'917.5
2017-Aug-17 00:30N 38°12' E 015°37'1020.6
2017-Aug-17 00:00N 38°02' E 015°33'1121.4
2017-Aug-16 23:31N 37°53' E 015°27'1020.8
2017-Aug-16 23:00N 37°43' E 015°21'1121.1
2017-Aug-16 22:29N 37°34' E 015°14'8 1.0
2017-Aug-16 14:41N 37°29' E 015°06'0 0.0
2017-Aug-16 14:16N 37°29' E 015°06'12 1.4
2017-Aug-16 05:32N 37°37' E 015°17'121.4
2017-Aug-16 05:28N 37°38' E 015°18'1022.4
2017-Aug-16 05:00N 37°48' E 015°23'1122.7
2017-Aug-16 04:30N 37°58' E 015°29'1122.2
2017-Aug-16 04:00N 38°08' E 015°35'1121.5
2017-Aug-16 03:31N 38°18' E 015°41'917.5
2017-Aug-16 03:00N 38°26' E 015°36'1121.9
2017-Aug-16 02:30N 38°36' E 015°29'1122.1
2017-Aug-16 02:00N 38°46' E 015°24'1122.1
2017-Aug-16 01:31N 38°56' E 015°17'1122.0
2017-Aug-16 00:59N 39°06' E 015°11'1122.0
2017-Aug-16 00:30N 39°15' E 015°05'1121.8
2017-Aug-15 23:59N 39°26' E 014°59'1121.7
2017-Aug-15 23:30N 39°35' E 014°53'1121.9
2017-Aug-15 23:00N 39°45' E 014°47'1221.8
2017-Aug-15 22:28N 39°55' E 014°40'1121.3
2017-Aug-15 21:56N 40°05' E 014°33'921.4
2017-Aug-15 21:30N 40°14' E 014°28'1021.3
2017-Aug-15 21:00N 40°24' E 014°23'1121.6
2017-Aug-15 20:30N 40°34' E 014°17'1122.3
2017-Aug-15 20:01N 40°45' E 014°17'610.7
2017-Aug-15 19:28N 40°50' E 014°16'0 0.0
2017-Aug-15 18:58N 40°50' E 014°16'0 0.0
2017-Aug-15 15:46N 40°50' E 014°16'0 0.0
2017-Aug-15 15:28N 40°50' E 014°16'0 0.0
2017-Aug-15 14:52N 40°50' E 014°16'0 0.0
2017-Aug-15 13:31N 40°50' E 014°16'0 0.0
2017-Aug-15 13:19N 40°50' E 014°16'0 0.0
2017-Aug-15 12:58N 40°50' E 014°16'0 0.0
2017-Aug-15 12:28N 40°50' E 014°16'0 0.0
2017-Aug-15 11:58N 40°50' E 014°16'0 0.0
2017-Aug-15 11:28N 40°50' E 014°16'0 0.0
2017-Aug-15 10:31N 40°50' E 014°16'0 0.0
2017-Aug-15 09:40N 40°50' E 014°16'0 0.0
2017-Aug-15 09:22N 40°50' E 014°16'0 0.5
2017-Aug-15 08:58N 40°50' E 014°16'612.7
2017-Aug-15 08:31N 40°45' E 014°17'2020.9
2017-Aug-15 07:34N 40°25' E 014°22'120.9
2017-Aug-15 07:30N 40°24' E 014°23'1021.0
2017-Aug-15 07:00N 40°15' E 014°29'3121.0
2017-Aug-15 05:31N 39°47' E 014°47'121.2
2017-Aug-15 05:29N 39°46' E 014°48'2021.1
2017-Aug-15 04:32N 39°28' E 014°59'221.5
2017-Aug-15 04:26N 39°26' E 015°00'3321.1
2017-Aug-15 02:53N 38°57' E 015°19'920.9
2017-Aug-15 02:29N 38°49' E 015°23'1020.8
2017-Aug-15 02:00N 38°40' E 015°29'1121.3
2017-Aug-15 01:30N 38°31' E 015°35'1020.6
2017-Aug-15 01:01N 38°21' E 015°41'815.3
2017-Aug-15 00:31N 38°14' E 015°37'1020.3
2017-Aug-15 00:01N 38°04' E 015°34'1121.3
2017-Aug-14 23:30N 37°54' E 015°28'1121.2
2017-Aug-14 23:00N 37°45' E 015°23'1021.1
2017-Aug-14 22:30N 37°35' E 015°17'10 0.5
2017-Aug-14 04:21N 37°28' E 015°08'819.6
2017-Aug-14 03:55N 37°34' E 015°16'920.6
2017-Aug-14 03:30N 37°42' E 015°21'1020.8
2017-Aug-14 03:00N 37°51' E 015°26'1121.2
2017-Aug-14 02:30N 38°01' E 015°31'1122.1
2017-Aug-14 02:00N 38°11' E 015°36'918.5
2017-Aug-14 01:30N 38°20' E 015°40'1121.6
2017-Aug-14 01:00N 38°30' E 015°34'1020.8
2017-Aug-14 00:31N 38°39' E 015°28'1120.9
2017-Aug-13 23:58N 38°49' E 015°22'1020.9
2017-Aug-13 23:30N 38°58' E 015°16'2621.1
2017-Aug-13 22:16N 39°21' E 015°02'6120.9
2017-Aug-13 19:22N 40°16' E 014°27'721.1
2017-Aug-13 19:00N 40°23' E 014°23'1421.5
2017-Aug-13 18:22N 40°36' E 014°17'822.3
2017-Aug-13 18:00N 40°44' E 014°17'6 7.5
2017-Aug-13 17:08N 40°50' E 014°16'0 0.0
2017-Aug-13 16:59N 40°50' E 014°16'0 0.0
2017-Aug-13 16:28N 40°50' E 014°16'0 0.0
2017-Aug-13 16:00N 40°50' E 014°16'0 0.0
2017-Aug-13 15:30N 40°50' E 014°16'0 0.0
2017-Aug-13 14:59N 40°50' E 014°16'0 0.0
2017-Aug-13 14:26N 40°50' E 014°16'0 0.0
2017-Aug-13 13:59N 40°50' E 014°16'0 0.0
2017-Aug-13 13:26N 40°50' E 014°16'0 0.0
2017-Aug-13 12:31N 40°50' E 014°16'0 0.0
2017-Aug-13 12:30N 40°50' E 014°16'0 0.0
2017-Aug-13 12:00N 40°50' E 014°16'0 0.0
2017-Aug-13 11:24N 40°50' E 014°16'0 0.0
2017-Aug-13 11:00N 40°50' E 014°16'0 0.0
2017-Aug-13 10:30N 40°50' E 014°16'0 0.0
2017-Aug-13 10:00N 40°50' E 014°16'0 0.0
2017-Aug-13 09:29N 40°50' E 014°16'0 0.3
2017-Aug-13 09:00N 40°50' E 014°16'917.2
2017-Aug-13 08:30N 40°42' E 014°17'1620.4
2017-Aug-13 07:44N 40°26' E 014°22'521.3
2017-Aug-13 07:30N 40°22' E 014°25'6021.4
2017-Aug-13 04:41N 39°28' E 014°59'421.0
2017-Aug-13 04:30N 39°24' E 015°01'3020.5
2017-Aug-13 03:03N 38°58' E 015°19'520.5
2017-Aug-13 02:49N 38°53' E 015°21'620.3
2017-Aug-13 02:30N 38°48' E 015°25'1020.7
2017-Aug-13 02:00N 38°38' E 015°30'1021.0
2017-Aug-13 01:31N 38°29' E 015°36'1020.5
2017-Aug-13 01:00N 38°19' E 015°42'815.8
2017-Aug-13 00:30N 38°13' E 015°37'1020.1
2017-Aug-13 00:01N 38°03' E 015°33'1121.4
2017-Aug-12 23:30N 37°53' E 015°28'1121.3
2017-Aug-12 23:00N 37°43' E 015°22'1121.0
2017-Aug-12 22:28N 37°34' E 015°15'4 0.2
2017-Aug-12 05:45N 37°37' E 015°17'621.9
2017-Aug-12 05:30N 37°42' E 015°20'1122.0
2017-Aug-12 05:01N 37°52' E 015°26'1121.8
2017-Aug-12 04:30N 38°02' E 015°32'1223.0
2017-Aug-12 04:00N 38°13' E 015°36'917.7
2017-Aug-12 03:30N 38°21' E 015°39'1121.3
2017-Aug-12 03:00N 38°31' E 015°33'1121.2
2017-Aug-12 02:29N 38°41' E 015°27'1121.3
2017-Aug-12 01:59N 38°50' E 015°21'1021.1
2017-Aug-12 01:30N 38°59' E 015°15'2520.9
2017-Aug-12 00:20N 39°21' E 015°01'2620.8
2017-Aug-11 23:06N 39°44' E 014°47'220.9
2017-Aug-11 23:00N 39°46' E 014°46'5521.2
2017-Aug-11 20:24N 40°36' E 014°17'8 0.6
2017-Aug-11 05:33N 40°45' E 014°17'119.9
2017-Aug-11 05:30N 40°44' E 014°17'5220.3
2017-Aug-11 02:55N 39°55' E 014°42'3021.1
2017-Aug-11 01:30N 39°28' E 014°59'2820.8
2017-Aug-11 00:09N 39°03' E 015°15'620.8
2017-Aug-10 23:53N 38°58' E 015°18'820.9
2017-Aug-10 23:30N 38°51' E 015°22'1020.8
2017-Aug-10 23:00N 38°41' E 015°28'1021.1
2017-Aug-10 22:31N 38°32' E 015°34'1020.9
2017-Aug-10 22:01N 38°22' E 015°40'815.8
2017-Aug-10 21:30N 38°15' E 015°39'1020.2
2017-Aug-10 21:00N 38°05' E 015°34'1121.3
2017-Aug-10 20:30N 37°55' E 015°29'1020.7
2017-Aug-10 20:00N 37°46' E 015°23'1121.5
2017-Aug-10 19:30N 37°36' E 015°17'11 0.9
2017-Aug-10 07:14N 37°29' E 015°06'916.1
2017-Aug-10 06:41N 37°34' E 015°15'420.4
2017-Aug-10 06:29N 37°37' E 015°18'1020.8
2017-Aug-10 06:00N 37°46' E 015°23'1121.4
2017-Aug-10 05:30N 37°56' E 015°29'1121.1
2017-Aug-10 05:00N 38°06' E 015°34'917.7
2017-Aug-10 04:30N 38°14' E 015°37'815.2
2017-Aug-10 04:00N 38°22' E 015°38'1121.1
2017-Aug-10 03:30N 38°32' E 015°32'1020.9
2017-Aug-10 03:00N 38°41' E 015°27'1120.7
2017-Aug-10 02:30N 38°50' E 015°21'1020.4
2017-Aug-10 02:00N 38°59' E 015°15'1120.5
2017-Aug-10 01:29N 39°09' E 015°09'10120.2
2017-Aug-09 20:27N 40°42' E 014°17'8 2.4
2017-Aug-09 17:04N 40°50' E 014°16'0 0.0
2017-Aug-09 17:00N 40°50' E 014°16'0 0.0
2017-Aug-09 16:24N 40°50' E 014°16'0 0.0
2017-Aug-09 16:00N 40°50' E 014°16'0 0.0
2017-Aug-09 15:30N 40°50' E 014°16'0 0.0
2017-Aug-09 15:00N 40°50' E 014°16'0 0.0
2017-Aug-09 14:29N 40°50' E 014°16'0 0.0
2017-Aug-09 14:00N 40°50' E 014°16'0 0.0
2017-Aug-09 13:30N 40°50' E 014°16'0 0.0
2017-Aug-09 13:00N 40°50' E 014°16'0 0.0
2017-Aug-09 12:30N 40°50' E 014°16'0 0.0
2017-Aug-09 12:00N 40°50' E 014°16'0 0.0
2017-Aug-09 11:30N 40°50' E 014°16'0 0.0
2017-Aug-09 11:00N 40°50' E 014°16'0 0.0
2017-Aug-09 10:30N 40°50' E 014°16'0 0.0
2017-Aug-09 10:00N 40°50' E 014°16'0 0.0
2017-Aug-09 09:30N 40°50' E 014°16'0 0.2
2017-Aug-09 09:00N 40°50' E 014°16'713.7
2017-Aug-09 08:30N 40°43' E 014°17'1821.0
2017-Aug-09 07:39N 40°26' E 014°22'621.3
2017-Aug-09 07:22N 40°21' E 014°26'2621.1
2017-Aug-09 06:08N 39°57' E 014°40'3821.1
2017-Aug-09 04:21N 39°23' E 015°02'2521.0
2017-Aug-09 03:09N 39°00' E 015°16'320.7
2017-Aug-09 03:00N 38°58' E 015°17'1121.1
2017-Aug-09 02:30N 38°48' E 015°23'1121.2
2017-Aug-09 02:00N 38°39' E 015°29'1121.4
2017-Aug-09 01:30N 38°29' E 015°36'1121.6
2017-Aug-09 01:00N 38°19' E 015°42'917.9
2017-Aug-09 00:29N 38°11' E 015°37'1121.8
2017-Aug-08 23:59N 38°01' E 015°32'9 0.5
2017-Aug-08 05:29N 37°53' E 015°26'1021.7
2017-Aug-08 05:00N 38°02' E 015°31'1019.5
2017-Aug-08 04:30N 38°11' E 015°36'714.9
2017-Aug-08 04:00N 38°18' E 015°41'1019.5
2017-Aug-08 03:30N 38°27' E 015°37'1121.0
2017-Aug-08 03:00N 38°36' E 015°30'  
Track history (hours):
 
Tides and Currents Weather Stations Pressure Air Temp Water Temp Dewpoint Dewpoint Depression Visibility Wind Speed Wind Dir Waves Ship Positions

Florencia

Last reported at 2017-Aug-18 03:00 UTC. Time now 2017-Aug-18 03:06 UTC.
Position N 38°32' E 015°33'.

Length 186 m; draft 6 m.

Type: Ship (hazmat cat C). MMSI: 247105900.

Date/timePositionNaut miles runAvg speedWind from/ knotsBaromVisibWave heightAir tempDewpointWater temp
2017-Aug-18 03:00N 38°32' E 015°33'1121.5
2017-Aug-18 02:30N 38°41' E 015°26'1121.4
2017-Aug-18 02:00N 38°51' E 015°20'1121.3
2017-Aug-18 01:30N 39°01' E 015°14'1121.4
2017-Aug-18 01:00N 39°10' E 015°08'1221.2
2017-Aug-18 00:26N 39°21' E 015°02'2820.9
2017-Aug-17 23:06N 39°46' E 014°46'620.8
2017-Aug-17 22:49N 39°52' E 014°43'720.7
2017-Aug-17 22:27N 39°58' E 014°38'1021.1
2017-Aug-17 22:00N 40°07' E 014°33'1221.1
2017-Aug-17 21:27N 40°18' E 014°26'920.8
2017-Aug-17 21:00N 40°26' E 014°22'1821.1
2017-Aug-17 20:10N 40°43' E 014°17'321.5
2017-Aug-17 20:00N 40°47' E 014°17'4 6.1
2017-Aug-17 19:22N 40°50' E 014°16'0 0.0
2017-Aug-17 18:58N 40°50' E 014°16'0 0.0
2017-Aug-17 18:28N 40°50' E 014°16'0 0.0
2017-Aug-17 17:58N 40°50' E 014°16'0 0.0
2017-Aug-17 17:28N 40°50' E 014°16'0 0.0
2017-Aug-17 16:58N 40°50' E 014°16'0 0.0
2017-Aug-17 16:28N 40°50' E 014°16'0 0.0
2017-Aug-17 15:58N 40°50' E 014°16'0 0.0
2017-Aug-17 15:28N 40°50' E 014°16'0 0.0
2017-Aug-17 14:58N 40°50' E 014°16'0 0.0
2017-Aug-17 14:28N 40°50' E 014°16'0 0.0
2017-Aug-17 13:58N 40°50' E 014°16'0 0.0
2017-Aug-17 13:28N 40°50' E 014°16'0 0.0
2017-Aug-17 12:58N 40°50' E 014°16'0 0.0
2017-Aug-17 12:28N 40°50' E 014°16'0 0.0
2017-Aug-17 11:58N 40°50' E 014°16'0 0.0
2017-Aug-17 11:28N 40°50' E 014°16'0 0.0
2017-Aug-17 10:58N 40°50' E 014°16'0 0.0
2017-Aug-17 10:25N 40°50' E 014°16'0 0.0
2017-Aug-17 09:58N 40°50' E 014°16'0 0.0
2017-Aug-17 09:28N 40°50' E 014°16'0 0.0
2017-Aug-17 08:59N 40°50' E 014°16'510.4
2017-Aug-17 08:30N 40°45' E 014°17'1122.0
2017-Aug-17 08:01N 40°35' E 014°17'1121.9
2017-Aug-17 07:31N 40°24' E 014°23'3621.7
2017-Aug-17 05:50N 39°52' E 014°43'721.6
2017-Aug-17 05:30N 39°45' E 014°48'1921.5
2017-Aug-17 04:36N 39°28' E 014°59'2820.9
2017-Aug-17 03:17N 39°03' E 015°14'820.8
2017-Aug-17 02:55N 38°56' E 015°19'1021.0
2017-Aug-17 02:27N 38°48' E 015°24'921.0
2017-Aug-17 02:00N 38°39' E 015°29'1121.6
2017-Aug-17 01:30N 38°30' E 015°35'1121.4
2017-Aug-17 01:00N 38°20' E 015°42'917.5
2017-Aug-17 00:30N 38°12' E 015°37'1020.6
2017-Aug-17 00:00N 38°02' E 015°33'1121.4
2017-Aug-16 23:31N 37°53' E 015°27'1020.8
2017-Aug-16 23:00N 37°43' E 015°21'1121.1
2017-Aug-16 22:29N 37°34' E 015°14'8 1.0
2017-Aug-16 14:41N 37°29' E 015°06'0 0.0
2017-Aug-16 14:16N 37°29' E 015°06'12 1.4
2017-Aug-16 05:32N 37°37' E 015°17'121.4
2017-Aug-16 05:28N 37°38' E 015°18'1022.4
2017-Aug-16 05:00N 37°48' E 015°23'1122.7
2017-Aug-16 04:30N 37°58' E 015°29'1122.2
2017-Aug-16 04:00N 38°08' E 015°35'1121.5
2017-Aug-16 03:31N 38°18' E 015°41'917.5
2017-Aug-16 03:00N 38°26' E 015°36'1121.9
2017-Aug-16 02:30N 38°36' E 015°29'1122.1
2017-Aug-16 02:00N 38°46' E 015°24'1122.1
2017-Aug-16 01:31N 38°56' E 015°17'1122.0
2017-Aug-16 00:59N 39°06' E 015°11'1122.0
2017-Aug-16 00:30N 39°15' E 015°05'1121.8
2017-Aug-15 23:59N 39°26' E 014°59'1121.7
2017-Aug-15 23:30N 39°35' E 014°53'1121.9
2017-Aug-15 23:00N 39°45' E 014°47'1221.8
2017-Aug-15 22:28N 39°55' E 014°40'1121.3
2017-Aug-15 21:56N 40°05' E 014°33'921.4
2017-Aug-15 21:30N 40°14' E 014°28'1021.3
2017-Aug-15 21:00N 40°24' E 014°23'1121.6
2017-Aug-15 20:30N 40°34' E 014°17'1122.3
2017-Aug-15 20:01N 40°45' E 014°17'610.7
2017-Aug-15 19:28N 40°50' E 014°16'0 0.0
2017-Aug-15 18:58N 40°50' E 014°16'0 0.0
2017-Aug-15 15:46N 40°50' E 014°16'0 0.0
2017-Aug-15 15:28N 40°50' E 014°16'0 0.0
2017-Aug-15 14:52N 40°50' E 014°16'0 0.0
2017-Aug-15 13:31N 40°50' E 014°16'0 0.0
2017-Aug-15 13:19N 40°50' E 014°16'0 0.0
2017-Aug-15 12:58N 40°50' E 014°16'0 0.0
2017-Aug-15 12:28N 40°50' E 014°16'0 0.0
2017-Aug-15 11:58N 40°50' E 014°16'0 0.0
2017-Aug-15 11:28N 40°50' E 014°16'0 0.0
2017-Aug-15 10:31N 40°50' E 014°16'0 0.0
2017-Aug-15 09:40N 40°50' E 014°16'0 0.0
2017-Aug-15 09:22N 40°50' E 014°16'0 0.5
2017-Aug-15 08:58N 40°50' E 014°16'612.7
2017-Aug-15 08:31N 40°45' E 014°17'2020.9
2017-Aug-15 07:34N 40°25' E 014°22'120.9
2017-Aug-15 07:30N 40°24' E 014°23'1021.0
2017-Aug-15 07:00N 40°15' E 014°29'3121.0
2017-Aug-15 05:31N 39°47' E 014°47'121.2
2017-Aug-15 05:29N 39°46' E 014°48'2021.1
2017-Aug-15 04:32N 39°28' E 014°59'221.5
2017-Aug-15 04:26N 39°26' E 015°00'3321.1
2017-Aug-15 02:53N 38°57' E 015°19'920.9
2017-Aug-15 02:29N 38°49' E 015°23'1020.8
2017-Aug-15 02:00N 38°40' E 015°29'1121.3
2017-Aug-15 01:30N 38°31' E 015°35'1020.6
2017-Aug-15 01:01N 38°21' E 015°41'815.3
2017-Aug-15 00:31N 38°14' E 015°37'1020.3
2017-Aug-15 00:01N 38°04' E 015°34'1121.3
2017-Aug-14 23:30N 37°54' E 015°28'1121.2
2017-Aug-14 23:00N 37°45' E 015°23'1021.1
2017-Aug-14 22:30N 37°35' E 015°17'10 0.5
2017-Aug-14 04:21N 37°28' E 015°08'819.6
2017-Aug-14 03:55N 37°34' E 015°16'920.6
2017-Aug-14 03:30N 37°42' E 015°21'1020.8
2017-Aug-14 03:00N 37°51' E 015°26'1121.2
2017-Aug-14 02:30N 38°01' E 015°31'1122.1
2017-Aug-14 02:00N 38°11' E 015°36'918.5
2017-Aug-14 01:30N 38°20' E 015°40'1121.6
2017-Aug-14 01:00N 38°30' E 015°34'1020.8
2017-Aug-14 00:31N 38°39' E 015°28'1120.9
2017-Aug-13 23:58N 38°49' E 015°22'1020.9
2017-Aug-13 23:30N 38°58' E 015°16'2621.1
2017-Aug-13 22:16N 39°21' E 015°02'6120.9
2017-Aug-13 19:22N 40°16' E 014°27'721.1
2017-Aug-13 19:00N 40°23' E 014°23'1421.5
2017-Aug-13 18:22N 40°36' E 014°17'822.3
2017-Aug-13 18:00N 40°44' E 014°17'6 7.5
2017-Aug-13 17:08N 40°50' E 014°16'0 0.0
2017-Aug-13 16:59N 40°50' E 014°16'0 0.0
2017-Aug-13 16:28N 40°50' E 014°16'0 0.0
2017-Aug-13 16:00N 40°50' E 014°16'0 0.0
2017-Aug-13 15:30N 40°50' E 014°16'0 0.0
2017-Aug-13 14:59N 40°50' E 014°16'0 0.0
2017-Aug-13 14:26N 40°50' E 014°16'0 0.0
2017-Aug-13 13:59N 40°50' E 014°16'0 0.0
2017-Aug-13 13:26N 40°50' E 014°16'0 0.0
2017-Aug-13 12:31N 40°50' E 014°16'0 0.0
2017-Aug-13 12:30N 40°50' E 014°16'0 0.0
2017-Aug-13 12:00N 40°50' E 014°16'0 0.0
2017-Aug-13 11:24N 40°50' E 014°16'0 0.0
2017-Aug-13 11:00N 40°50' E 014°16'0 0.0
2017-Aug-13 10:30N 40°50' E 014°16'0 0.0
2017-Aug-13 10:00N 40°50' E 014°16'0 0.0
2017-Aug-13 09:29N 40°50' E 014°16'0 0.3
2017-Aug-13 09:00N 40°50' E 014°16'917.2
2017-Aug-13 08:30N 40°42' E 014°17'1620.4
2017-Aug-13 07:44N 40°26' E 014°22'521.3
2017-Aug-13 07:30N 40°22' E 014°25'6021.4
2017-Aug-13 04:41N 39°28' E 014°59'421.0
2017-Aug-13 04:30N 39°24' E 015°01'3020.5
2017-Aug-13 03:03N 38°58' E 015°19'520.5
2017-Aug-13 02:49N 38°53' E 015°21'620.3
2017-Aug-13 02:30N 38°48' E 015°25'1020.7
2017-Aug-13 02:00N 38°38' E 015°30'1021.0
2017-Aug-13 01:31N 38°29' E 015°36'1020.5
2017-Aug-13 01:00N 38°19' E 015°42'815.8
2017-Aug-13 00:30N 38°13' E 015°37'1020.1
2017-Aug-13 00:01N 38°03' E 015°33'1121.4
2017-Aug-12 23:30N 37°53' E 015°28'1121.3
2017-Aug-12 23:00N 37°43' E 015°22'1121.0
2017-Aug-12 22:28N 37°34' E 015°15'4 0.2
2017-Aug-12 05:45N 37°37' E 015°17'621.9
2017-Aug-12 05:30N 37°42' E 015°20'1122.0
2017-Aug-12 05:01N 37°52' E 015°26'1121.8
2017-Aug-12 04:30N 38°02' E 015°32'1223.0
2017-Aug-12 04:00N 38°13' E 015°36'917.7
2017-Aug-12 03:30N 38°21' E 015°39'1121.3
2017-Aug-12 03:00N 38°31' E 015°33'1121.2
2017-Aug-12 02:29N 38°41' E 015°27'1121.3
2017-Aug-12 01:59N 38°50' E 015°21'1021.1
2017-Aug-12 01:30N 38°59' E 015°15'2520.9
2017-Aug-12 00:20N 39°21' E 015°01'2620.8
2017-Aug-11 23:06N 39°44' E 014°47'220.9
2017-Aug-11 23:00N 39°46' E 014°46'5521.2
2017-Aug-11 20:24N 40°36' E 014°17'8 0.6
2017-Aug-11 05:33N 40°45' E 014°17'119.9
2017-Aug-11 05:30N 40°44' E 014°17'5220.3
2017-Aug-11 02:55N 39°55' E 014°42'3021.1
2017-Aug-11 01:30N 39°28' E 014°59'2820.8
2017-Aug-11 00:09N 39°03' E 015°15'620.8
2017-Aug-10 23:53N 38°58' E 015°18'820.9
2017-Aug-10 23:30N 38°51' E 015°22'1020.8
2017-Aug-10 23:00N 38°41' E 015°28'1021.1
2017-Aug-10 22:31N 38°32' E 015°34'1020.9
2017-Aug-10 22:01N 38°22' E 015°40'815.8
2017-Aug-10 21:30N 38°15' E 015°39'1020.2
2017-Aug-10 21:00N 38°05' E 015°34'1121.3
2017-Aug-10 20:30N 37°55' E 015°29'1020.7
2017-Aug-10 20:00N 37°46' E 015°23'1121.5
2017-Aug-10 19:30N 37°36' E 015°17'11 0.9
2017-Aug-10 07:14N 37°29' E 015°06'916.1
2017-Aug-10 06:41N 37°34' E 015°15'420.4
2017-Aug-10 06:29N 37°37' E 015°18'1020.8
2017-Aug-10 06:00N 37°46' E 015°23'1121.4
2017-Aug-10 05:30N 37°56' E 015°29'1121.1
2017-Aug-10 05:00N 38°06' E 015°34'917.7
2017-Aug-10 04:30N 38°14' E 015°37'815.2
2017-Aug-10 04:00N 38°22' E 015°38'1121.1
2017-Aug-10 03:30N 38°32' E 015°32'1020.9
2017-Aug-10 03:00N 38°41' E 015°27'1120.7
2017-Aug-10 02:30N 38°50' E 015°21'1020.4
2017-Aug-10 02:00N 38°59' E 015°15'1120.5
2017-Aug-10 01:29N 39°09' E 015°09'10120.2
2017-Aug-09 20:27N 40°42' E 014°17'8 2.4
2017-Aug-09 17:04N 40°50' E 014°16'0 0.0
2017-Aug-09 17:00N 40°50' E 014°16'0 0.0
2017-Aug-09 16:24N 40°50' E 014°16'0 0.0
2017-Aug-09 16:00N 40°50' E 014°16'0 0.0
2017-Aug-09 15:30N 40°50' E 014°16'0 0.0
2017-Aug-09 15:00N 40°50' E 014°16'0 0.0
2017-Aug-09 14:29N 40°50' E 014°16'0 0.0
2017-Aug-09 14:00N 40°50' E 014°16'0 0.0
2017-Aug-09 13:30N 40°50' E 014°16'0 0.0
2017-Aug-09 13:00N 40°50' E 014°16'0 0.0
2017-Aug-09 12:30N 40°50' E 014°16'0 0.0
2017-Aug-09 12:00N 40°50' E 014°16'0 0.0
2017-Aug-09 11:30N 40°50' E 014°16'0 0.0
2017-Aug-09 11:00N 40°50' E 014°16'0 0.0
2017-Aug-09 10:30N 40°50' E 014°16'0 0.0
2017-Aug-09 10:00N 40°50' E 014°16'0 0.0
2017-Aug-09 09:30N 40°50' E 014°16'0 0.2
2017-Aug-09 09:00N 40°50' E 014°16'713.7
2017-Aug-09 08:30N 40°43' E 014°17'1821.0
2017-Aug-09 07:39N 40°26' E 014°22'621.3
2017-Aug-09 07:22N 40°21' E 014°26'2621.1
2017-Aug-09 06:08N 39°57' E 014°40'3821.1
2017-Aug-09 04:21N 39°23' E 015°02'2521.0
2017-Aug-09 03:09N 39°00' E 015°16'320.7
2017-Aug-09 03:00N 38°58' E 015°17'1121.1
2017-Aug-09 02:30N 38°48' E 015°23'1121.2
2017-Aug-09 02:00N 38°39' E 015°29'1121.4
2017-Aug-09 01:30N 38°29' E 015°36'1121.6
2017-Aug-09 01:00N 38°19' E 015°42'917.9
2017-Aug-09 00:29N 38°11' E 015°37'1121.8
2017-Aug-08 23:59N 38°01' E 015°32'9 0.5
2017-Aug-08 05:29N 37°53' E 015°26'1021.7
2017-Aug-08 05:00N 38°02' E 015°31'1019.5
2017-Aug-08 04:30N 38°11' E 015°36'714.9
2017-Aug-08 04:00N 38°18' E 015°41'1019.5
2017-Aug-08 03:30N 38°27' E 015°37'1121.0
2017-Aug-08 03:00N 38°36' E 015°30'  

Dump ship's entire track history